Time;durP1;ratioP1;P1;durP2;ratioP2;P2;SDS_P1;SDS_P2;PMS_P1;PMS_P2;Temp;Humidity;BMP_temperature;BMP_pressure;BME280_temperature;BME280_humidity;BME280_pressure;Samples;Min_cycle;Max_cycle;Signal;HPM_P1;HPM_P2
2021/03/06 06:00:53;;;;;;;2.25;2.15;;;;;;;;;;5083918;28;20889;-49
2021/03/06 06:03:21;;;;;;;1.77;1.63;;;;;;;;;;5083651;28;20497;-46
2021/03/06 06:05:47;;;;;;;3.17;2.47;;;;;;;;;;5072992;28;20059;-50
2021/03/06 06:08:14;;;;;;;3.92;2.95;;;;;;;;;;5072958;28;20466;-47
2021/03/06 06:10:40;;;;;;;0.50;0.50;;;;;;;;;;5072953;28;20085;-48
2021/03/06 06:13:06;;;;;;;2.95;1.33;;;;;;;;;;5070566;28;20026;-48
2021/03/06 06:15:32;;;;;;;6.07;3.30;;;;;;;;;;5070200;28;20446;-49
2021/03/06 06:17:58;;;;;;;0.60;0.60;;;;;;;;;;5083146;28;20056;-49
2021/03/06 06:20:24;;;;;;;2.10;1.80;;;;;;;;;;5077160;28;20451;-48
2021/03/06 06:23:11;;;;;;;3.47;2.20;;;;;;;;;;5085231;28;20028;-49
2021/03/06 06:25:37;;;;;;;3.65;2.63;;;;;;;;;;5079884;28;20086;-46
2021/03/06 06:28:04;;;;;;;0.25;0.25;;;;;;;;;;5068723;28;20107;-46
2021/03/06 06:30:31;;;;;;;0.30;0.30;;;;;;;;;;5069782;28;20032;-46
2021/03/06 06:32:57;;;;;;;3.55;2.72;;;;;;;;;;5072251;28;20123;-48
2021/03/06 06:35:23;;;;;;;4.28;3.15;;;;;;;;;;5071446;28;20028;-45
2021/03/06 06:38:03;;;;;;;1.52;1.42;;;;;;;;;;5071568;28;20013;-47
2021/03/06 06:40:30;;;;;;;3.90;3.53;;;;;;;;;;5081918;28;20444;-46
2021/03/06 06:42:57;;;;;;;0.98;0.98;;;;;;;;;;5084024;28;20095;-46
2021/03/06 06:45:23;;;;;;;2.85;2.65;;;;;;;;;;5084736;28;20073;-47
2021/03/06 06:47:51;;;;;;;0.40;0.40;;;;;;;;;;5080423;28;20039;-47
2021/03/06 06:50:32;;;;;;;1.10;0.88;;;;;;;;;;5084035;28;20040;-46
2021/03/06 06:52:58;;;;;;;5.50;1.75;;;;;;;;;;5078508;28;20051;-47
2021/03/06 06:55:34;;;;;;;0.77;0.50;;;;;;;;;;5071412;28;20028;-46
2021/03/06 06:58:00;;;;;;;0.98;0.98;;;;;;;;;;5067682;28;20085;-46
2021/03/06 07:00:28;;;;;;;0.80;0.77;;;;;;;;;;5078826;28;20048;-49
2021/03/06 07:02:55;;;;;;;4.32;2.05;;;;;;;;;;5070053;28;20056;-48
2021/03/06 07:05:30;;;;;;;1.02;0.80;;;;;;;;;;5069554;28;20103;-47
2021/03/06 07:07:58;;;;;;;3.00;2.55;;;;;;;;;;5071472;28;20035;-46
2021/03/06 07:10:24;;;;;;;2.17;1.92;;;;;;;;;;5069510;28;20051;-46
2021/03/06 07:13:02;;;;;;;1.45;1.45;;;;;;;;;;5054027;28;20440;-47
2021/03/06 07:15:29;;;;;;;1.23;1.20;;;;;;;;;;5068989;28;20047;-50
2021/03/06 07:17:57;;;;;;;2.30;2.20;;;;;;;;;;5071643;28;20029;-49
2021/03/06 07:20:23;;;;;;;2.47;1.75;;;;;;;;;;5069424;28;20065;-54
2021/03/06 07:22:50;;;;;;;6.13;2.67;;;;;;;;;;5069183;28;20021;-47
2021/03/06 07:25:16;;;;;;;2.13;1.48;;;;;;;;;;5068095;28;20048;-50
2021/03/06 07:27:42;;;;;;;7.95;1.60;;;;;;;;;;5071021;28;20032;-50
2021/03/06 07:30:09;;;;;;;1.65;1.45;;;;;;;;;;5071263;28;20041;-49
2021/03/06 07:32:40;;;;;;;18.33;2.22;;;;;;;;;;5068878;28;20033;-48
2021/03/06 07:35:07;;;;;;;1.35;0.57;;;;;;;;;;5069325;28;20036;-49
2021/03/06 07:37:34;;;;;;;0.95;0.95;;;;;;;;;;5068975;28;20489;-50
2021/03/06 07:40:01;;;;;;;0.90;0.90;;;;;;;;;;5069382;28;20029;-49
2021/03/06 07:42:30;;;;;;;3.60;1.90;;;;;;;;;;5082576;28;20097;-48
2021/03/06 07:44:57;;;;;;;2.13;1.20;;;;;;;;;;5071864;28;20032;-48
2021/03/06 07:47:30;;;;;;;2.10;1.92;;;;;;;;;;5068890;28;20486;-47
2021/03/06 07:49:58;;;;;;;4.97;3.28;;;;;;;;;;5069095;28;20064;-52
2021/03/06 07:52:25;;;;;;;2.90;0.93;;;;;;;;;;5067789;28;20024;-49
2021/03/06 07:54:52;;;;;;;0.50;0.50;;;;;;;;;;5053122;28;20036;-47
2021/03/06 07:57:18;;;;;;;0.77;0.70;;;;;;;;;;5072319;28;20051;-48
2021/03/06 07:59:51;;;;;;;1.58;1.48;;;;;;;;;;5068752;28;20040;-47
2021/03/06 08:02:29;;;;;;;2.38;1.60;;;;;;;;;;5067976;28;20032;-49
2021/03/06 08:04:56;;;;;;;5.95;1.42;;;;;;;;;;5068126;28;20491;-51
2021/03/06 08:07:36;;;;;;;0.70;0.70;;;;;;;;;;5069264;28;20117;-51
2021/03/06 08:10:03;;;;;;;2.15;1.20;;;;;;;;;;5054688;28;20061;-50
2021/03/06 08:12:32;;;;;;;1.95;0.88;;;;;;;;;;5070431;28;20036;-51
2021/03/06 08:14:58;;;;;;;17.48;1.65;;;;;;;;;;5071550;28;20067;-55
2021/03/06 08:17:36;;;;;;;2.45;1.25;;;;;;;;;;5068152;28;20108;-51
2021/03/06 08:20:02;;;;;;;2.00;1.23;;;;;;;;;;5068268;28;20032;-52
2021/03/06 08:22:28;;;;;;;1.15;1.05;;;;;;;;;;5068188;28;20039;-53
2021/03/06 08:24:54;;;;;;;1.13;1.02;;;;;;;;;;5068257;28;20077;-49
2021/03/06 08:27:22;;;;;;;9.93;2.63;;;;;;;;;;5072209;28;20043;-52
2021/03/06 08:29:55;;;;;;;1.85;1.58;;;;;;;;;;5068293;28;20131;-50
2021/03/06 08:32:24;;;;;;;1.00;1.00;;;;;;;;;;5068114;28;20033;-51
2021/03/06 08:34:51;;;;;;;4.32;1.73;;;;;;;;;;5067818;28;20020;-47
2021/03/06 08:37:20;;;;;;;1.42;1.10;;;;;;;;;;5068380;28;20504;-48
2021/03/06 08:40:06;;;;;;;1.27;1.17;;;;;;;;;;5069881;28;20438;-47
2021/03/06 08:42:38;;;;;;;8.05;3.42;;;;;;;;;;5068317;28;20040;-48
2021/03/06 08:45:07;;;;;;;1.48;1.38;;;;;;;;;;5069065;28;20518;-51
2021/03/06 08:47:35;;;;;;;6.82;2.35;;;;;;;;;;5067956;28;20024;-51
2021/03/06 08:50:04;;;;;;;0.50;0.50;;;;;;;;;;5067975;28;20067;-47
2021/03/06 08:52:30;;;;;;;2.15;1.30;;;;;;;;;;5067737;28;20028;-52
2021/03/06 08:54:57;;;;;;;5.78;2.85;;;;;;;;;;5067779;28;20029;-47
2021/03/06 08:57:23;;;;;;;0.35;0.35;;;;;;;;;;5071108;28;20394;-48
2021/03/06 08:59:50;;;;;;;1.77;1.45;;;;;;;;;;5069380;28;20040;-48
2021/03/06 09:02:17;;;;;;;0.30;0.30;;;;;;;;;;5068042;28;20077;-51
2021/03/06 09:04:43;;;;;;;1.77;1.27;;;;;;;;;;5067817;28;20472;-47
2021/03/06 09:07:10;;;;;;;3.42;1.58;;;;;;;;;;5067845;28;20017;-48
2021/03/06 09:09:36;;;;;;;1.15;0.77;;;;;;;;;;5070436;28;20040;-47
2021/03/06 09:12:03;;;;;;;9.02;2.17;;;;;;;;;;5069187;28;20111;-49
2021/03/06 09:14:30;;;;;;;7.50;3.42;;;;;;;;;;5067676;28;20032;-52
2021/03/06 09:16:56;;;;;;;11.82;4.28;;;;;;;;;;5068283;28;20457;-50
2021/03/06 09:19:23;;;;;;;1.30;1.00;;;;;;;;;;5068097;28;20047;-49
2021/03/06 09:21:58;;;;;;;11.23;3.75;;;;;;;;;;5068124;28;20033;-51
2021/03/06 09:24:24;;;;;;;6.95;3.47;;;;;;;;;;5066843;28;20078;-48
2021/03/06 09:26:53;;;;;;;2.78;1.75;;;;;;;;;;5068453;28;20478;-49
2021/03/06 09:29:19;;;;;;;6.13;3.22;;;;;;;;;;5067430;28;20037;-47
2021/03/06 09:31:50;;;;;;;0.32;0.32;;;;;;;;;;5066028;28;20489;-49
2021/03/06 09:34:17;;;;;;;8.23;2.45;;;;;;;;;;5066843;28;20124;-54
2021/03/06 09:36:43;;;;;;;10.75;4.88;;;;;;;;;;5068514;28;20025;-49
2021/03/06 09:39:10;;;;;;;1.45;1.30;;;;;;;;;;5068487;28;20025;-51
2021/03/06 09:41:38;;;;;;;7.05;4.32;;;;;;;;;;5068704;28;20049;-51
2021/03/06 09:44:06;;;;;;;5.78;3.03;;;;;;;;;;5065788;28;20070;-49
2021/03/06 09:46:33;;;;;;;5.53;3.58;;;;;;;;;;5068796;28;20086;-48
2021/03/06 09:49:00;;;;;;;18.88;6.57;;;;;;;;;;5065769;28;20087;-54
2021/03/06 09:51:38;;;;;;;5.93;3.50;;;;;;;;;;5070433;28;20056;-49
2021/03/06 09:54:04;;;;;;;8.73;5.82;;;;;;;;;;5068856;28;20075;-49
2021/03/06 09:56:31;;;;;;;8.70;4.53;;;;;;;;;;5067244;28;20107;-49
2021/03/06 09:58:58;;;;;;;6.07;3.17;;;;;;;;;;5066239;28;20071;-51
2021/03/06 10:01:25;;;;;;;10.52;5.93;;;;;;;;;;5063194;28;20542;-48
2021/03/06 10:03:51;;;;;;;13.27;4.40;;;;;;;;;;5059207;28;20111;-50
2021/03/06 10:06:21;;;;;;;10.57;5.65;;;;;;;;;;5060668;28;20028;-49
2021/03/06 10:08:53;;;;;;;2.80;2.28;;;;;;;;;;5064339;28;20115;-47
2021/03/06 10:11:20;;;;;;;16.73;9.63;;;;;;;;;;5058532;28;20090;-47
2021/03/06 10:13:51;;;;;;;1.33;0.85;;;;;;;;;;5058723;28;20116;-49
2021/03/06 10:16:17;;;;;;;1.52;1.42;;;;;;;;;;5064033;28;20440;-51
2021/03/06 10:18:43;;;;;;;17.02;6.05;;;;;;;;;;5056509;28;20028;-48
2021/03/06 10:21:20;;;;;;;19.92;7.47;;;;;;;;;;5058740;28;20029;-48
2021/03/06 10:23:46;;;;;;;17.25;9.43;;;;;;;;;;5050731;28;20087;-48
2021/03/06 10:26:15;;;;;;;11.73;5.65;;;;;;;;;;5057152;28;20106;-51
2021/03/06 10:28:42;;;;;;;6.78;1.98;;;;;;;;;;5056417;28;20132;-51
2021/03/06 10:31:24;;;;;;;4.93;3.97;;;;;;;;;;5050855;28;20118;-50
2021/03/06 10:33:50;;;;;;;12.15;5.45;;;;;;;;;;5049913;28;20041;-53
2021/03/06 10:36:17;;;;;;;5.88;2.78;;;;;;;;;;5055418;28;20040;-49
2021/03/06 10:38:44;;;;;;;18.38;8.05;;;;;;;;;;5066373;28;20032;-49
2021/03/06 10:41:17;;;;;;;7.95;2.55;;;;;;;;;;5066938;28;20103;-50
2021/03/06 10:43:44;;;;;;;7.57;4.68;;;;;;;;;;5066825;28;20557;-48
2021/03/06 10:46:15;;;;;;;2.50;1.08;;;;;;;;;;5063913;28;20028;-48
2021/03/06 10:48:42;;;;;;;14.07;4.93;;;;;;;;;;5060920;28;20044;-49
2021/03/06 10:51:08;;;;;;;10.65;5.20;;;;;;;;;;5065247;28;20095;-51
2021/03/06 10:53:35;;;;;;;8.07;4.18;;;;;;;;;;5056201;28;20025;-50
2021/03/06 10:56:04;;;;;;;11.90;5.22;;;;;;;;;;5055006;28;20120;-53
2021/03/06 10:58:47;;;;;;;9.15;7.30;;;;;;;;;;5054520;28;20037;-55
2021/03/06 11:01:16;;;;;;;3.50;3.13;;;;;;;;;;5057791;28;20411;-55
2021/03/06 11:03:48;;;;;;;14.32;7.03;;;;;;;;;;5059072;28;20111;-56
2021/03/06 11:06:15;;;;;;;8.68;5.75;;;;;;;;;;5055510;28;20033;-54
2021/03/06 11:08:41;;;;;;;5.43;2.38;;;;;;;;;;5054658;28;20434;-46
2021/03/06 11:11:08;;;;;;;4.22;3.85;;;;;;;;;;5057006;28;20048;-51
2021/03/06 11:13:52;;;;;;;12.38;5.30;;;;;;;;;;5057000;28;20533;-47
2021/03/06 11:16:35;;;;;;;7.32;5.13;;;;;;;;;;5057236;28;20021;-48
2021/03/06 11:19:01;;;;;;;3.20;2.92;;;;;;;;;;5054623;28;20070;-51
2021/03/06 11:21:27;;;;;;;10.82;6.30;;;;;;;;;;5055307;28;20024;-51
2021/03/06 11:23:53;;;;;;;0.98;0.98;;;;;;;;;;5069773;28;20071;-49
2021/03/06 11:26:19;;;;;;;3.17;2.05;;;;;;;;;;5068251;28;20028;-54
2021/03/06 11:28:45;;;;;;;6.57;3.38;;;;;;;;;;5069747;28;20474;-49
2021/03/06 11:31:11;;;;;;;2.35;1.85;;;;;;;;;;5070188;28;20025;-48
2021/03/06 11:33:37;;;;;;;6.18;2.70;;;;;;;;;;5071145;28;20393;-47
2021/03/06 11:36:04;;;;;;;14.15;7.20;;;;;;;;;;5071109;28;20028;-51
2021/03/06 11:38:30;;;;;;;9.88;5.53;;;;;;;;;;5069942;28;20067;-51
2021/03/06 11:40:56;;;;;;;1.55;1.15;;;;;;;;;;5069918;28;20049;-47
2021/03/06 11:43:23;;;;;;;5.45;2.78;;;;;;;;;;5068567;28;20103;-48
2021/03/06 11:45:49;;;;;;;14.82;7.50;;;;;;;;;;5070892;28;20056;-50
2021/03/06 11:48:15;;;;;;;6.68;3.28;;;;;;;;;;5072387;28;20501;-47
2021/03/06 11:50:44;;;;;;;4.80;2.55;;;;;;;;;;5069893;28;20044;-51
2021/03/06 11:53:11;;;;;;;7.03;3.17;;;;;;;;;;5068766;28;20013;-56
2021/03/06 11:55:37;;;;;;;3.75;2.78;;;;;;;;;;5069244;28;20032;-52
2021/03/06 11:58:03;;;;;;;2.90;2.65;;;;;;;;;;5068852;28;20021;-51
2021/03/06 12:00:33;;;;;;;4.72;1.85;;;;;;;;;;5071461;28;20056;-52
2021/03/06 12:02:59;;;;;;;11.65;3.88;;;;;;;;;;5072015;28;20035;-50
2021/03/06 12:05:25;;;;;;;4.00;2.60;;;;;;;;;;5064869;28;20033;-49
2021/03/06 12:07:52;;;;;;;4.63;2.80;;;;;;;;;;5066464;28;20080;-48
2021/03/06 12:10:19;;;;;;;14.02;7.72;;;;;;;;;;5071159;28;20064;-51
2021/03/06 12:12:46;;;;;;;2.85;1.52;;;;;;;;;;5070541;28;20067;-48
2021/03/06 12:15:15;;;;;;;2.28;1.15;;;;;;;;;;5067414;28;20037;-47
2021/03/06 12:17:42;;;;;;;13.35;7.60;;;;;;;;;;5066746;28;20032;-53
2021/03/06 12:20:09;;;;;;;4.88;3.65;;;;;;;;;;5067502;28;20052;-46
2021/03/06 12:22:35;;;;;;;12.82;4.40;;;;;;;;;;5066598;28;20040;-48
2021/03/06 12:25:01;;;;;;;4.40;1.27;;;;;;;;;;5070427;28;20092;-47
2021/03/06 12:27:27;;;;;;;8.55;4.65;;;;;;;;;;5070295;28;20041;-49
2021/03/06 12:29:54;;;;;;;9.35;3.65;;;;;;;;;;5066767;28;20386;-47
2021/03/06 12:32:20;;;;;;;2.15;1.95;;;;;;;;;;5065732;28;20032;-50
2021/03/06 12:34:46;;;;;;;1.23;1.13;;;;;;;;;;5068421;28;20032;-47
2021/03/06 12:37:12;;;;;;;10.32;5.82;;;;;;;;;;5066474;28;20413;-47
2021/03/06 12:39:38;;;;;;;9.52;4.38;;;;;;;;;;5070234;28;20099;-49
2021/03/06 12:42:04;;;;;;;1.17;0.93;;;;;;;;;;5068399;28;20450;-50
2021/03/06 12:44:30;;;;;;;4.43;3.05;;;;;;;;;;5068349;28;20058;-53
2021/03/06 12:46:57;;;;;;;2.92;1.73;;;;;;;;;;5068686;28;20501;-47
2021/03/06 12:49:23;;;;;;;4.65;2.97;;;;;;;;;;5068563;28;20028;-49
2021/03/06 12:51:50;;;;;;;10.48;3.65;;;;;;;;;;5068292;28;20020;-56
2021/03/06 12:54:16;;;;;;;8.68;3.22;;;;;;;;;;5070439;28;20032;-51
2021/03/06 12:56:42;;;;;;;2.90;1.27;;;;;;;;;;5068491;28;20037;-55
2021/03/06 12:59:08;;;;;;;8.30;4.57;;;;;;;;;;5067693;28;20123;-53
2021/03/06 13:01:35;;;;;;;4.03;3.08;;;;;;;;;;5067273;28;20025;-48
2021/03/06 13:04:01;;;;;;;10.60;4.25;;;;;;;;;;5068109;28;20032;-48
2021/03/06 13:06:27;;;;;;;1.45;0.63;;;;;;;;;;5070424;28;20107;-49
2021/03/06 13:08:53;;;;;;;8.07;3.60;;;;;;;;;;5068883;28;20159;-46
2021/03/06 13:11:20;;;;;;;10.20;4.97;;;;;;;;;;5067907;28;20036;-46
2021/03/06 13:13:46;;;;;;;1.77;1.30;;;;;;;;;;5067118;28;20500;-55
2021/03/06 13:16:12;;;;;;;2.58;1.98;;;;;;;;;;5067848;28;20028;-50
2021/03/06 13:18:38;;;;;;;7.18;3.05;;;;;;;;;;5073763;28;20028;-51
2021/03/06 13:21:04;;;;;;;4.38;3.30;;;;;;;;;;5077436;28;20389;-51
2021/03/06 13:23:30;;;;;;;6.57;3.55;;;;;;;;;;5072928;28;20097;-50
2021/03/06 13:25:57;;;;;;;3.70;3.40;;;;;;;;;;5075908;28;20028;-51
2021/03/06 13:28:23;;;;;;;2.35;2.15;;;;;;;;;;5067322;28;20077;-51
2021/03/06 13:30:50;;;;;;;3.08;2.58;;;;;;;;;;5080796;28;20033;-48
2021/03/06 13:33:17;;;;;;;0.93;0.75;;;;;;;;;;5070788;28;20021;-51
2021/03/06 13:35:43;;;;;;;9.10;4.60;;;;;;;;;;5066940;28;20037;-51
2021/03/06 13:38:09;;;;;;;2.35;1.88;;;;;;;;;;5067611;28;20023;-53
2021/03/06 13:40:35;;;;;;;7.13;4.65;;;;;;;;;;5067668;28;20032;-53
2021/03/06 13:43:02;;;;;;;9.00;2.15;;;;;;;;;;5067555;28;20078;-52
2021/03/06 13:45:28;;;;;;;10.02;5.20;;;;;;;;;;5070539;28;20394;-52
2021/03/06 13:47:54;;;;;;;1.00;0.95;;;;;;;;;;5068471;28;20039;-51
2021/03/06 13:50:20;;;;;;;2.38;2.17;;;;;;;;;;5066998;28;20048;-51
2021/03/06 13:52:46;;;;;;;1.92;1.70;;;;;;;;;;5066675;28;20383;-51
2021/03/06 13:55:13;;;;;;;8.93;3.35;;;;;;;;;;5067638;28;20044;-52
2021/03/06 13:57:39;;;;;;;8.45;3.72;;;;;;;;;;5069829;28;20071;-53
2021/03/06 14:00:07;;;;;;;7.43;2.40;;;;;;;;;;5068360;28;20053;-50
2021/03/06 14:02:33;;;;;;;9.38;5.60;;;;;;;;;;5066898;28;20146;-48
2021/03/06 14:04:59;;;;;;;9.57;4.03;;;;;;;;;;5065433;28;20021;-47
2021/03/06 14:07:26;;;;;;;6.45;3.80;;;;;;;;;;5067024;28;20036;-49
2021/03/06 14:09:52;;;;;;;6.97;3.75;;;;;;;;;;5051610;28;20041;-53
2021/03/06 14:12:18;;;;;;;11.35;6.82;;;;;;;;;;5074549;28;20031;-53
2021/03/06 14:14:44;;;;;;;2.30;1.25;;;;;;;;;;5071114;28;20048;-49
2021/03/06 14:17:10;;;;;;;5.18;2.38;;;;;;;;;;5073528;28;20028;-49
2021/03/06 14:19:36;;;;;;;7.47;3.40;;;;;;;;;;5070929;28;20486;-47
2021/03/06 14:22:02;;;;;;;5.18;3.40;;;;;;;;;;5071501;28;20047;-47
2021/03/06 14:24:28;;;;;;;2.42;2.22;;;;;;;;;;5074167;28;20036;-49
2021/03/06 14:26:54;;;;;;;8.98;4.32;;;;;;;;;;5070577;28;20025;-56
2021/03/06 14:29:21;;;;;;;7.93;4.35;;;;;;;;;;5069539;28;20496;-54
2021/03/06 14:31:47;;;;;;;7.80;3.45;;;;;;;;;;5069453;28;20032;-52
2021/03/06 14:34:14;;;;;;;7.15;4.30;;;;;;;;;;5070732;28;20032;-50
2021/03/06 14:36:40;;;;;;;3.95;2.50;;;;;;;;;;5072471;28;20478;-52
2021/03/06 14:39:07;;;;;;;4.05;3.60;;;;;;;;;;5072390;28;20062;-48
2021/03/06 14:41:34;;;;;;;6.70;3.25;;;;;;;;;;5070748;28;20020;-54
2021/03/06 14:44:00;;;;;;;7.30;3.63;;;;;;;;;;5070926;28;20108;-52
2021/03/06 14:46:26;;;;;;;5.72;2.15;;;;;;;;;;5069953;28;20107;-47
2021/03/06 14:48:52;;;;;;;11.90;5.95;;;;;;;;;;5055008;28;20041;-47
2021/03/06 14:51:18;;;;;;;12.57;6.22;;;;;;;;;;5073970;28;20070;-51
2021/03/06 14:53:45;;;;;;;6.13;3.38;;;;;;;;;;5065030;28;20028;-47
2021/03/06 14:56:11;;;;;;;2.00;1.60;;;;;;;;;;5058943;28;20025;-51
2021/03/06 14:58:38;;;;;;;7.07;3.70;;;;;;;;;;5058979;28;20040;-50
2021/03/06 15:01:04;;;;;;;6.38;2.38;;;;;;;;;;5062517;28;20640;-49
2021/03/06 15:03:30;;;;;;;5.03;4.20;;;;;;;;;;5056771;28;20504;-51
2021/03/06 15:05:56;;;;;;;17.67;4.63;;;;;;;;;;5067869;28;20040;-52
2021/03/06 15:08:22;;;;;;;8.60;5.80;;;;;;;;;;5064102;28;20054;-47
2021/03/06 15:10:49;;;;;;;9.43;4.55;;;;;;;;;;5067128;28;20501;-48
2021/03/06 15:13:15;;;;;;;5.13;3.20;;;;;;;;;;5056938;28;20796;-53
2021/03/06 15:15:42;;;;;;;8.07;5.43;;;;;;;;;;5057450;28;20413;-46
2021/03/06 15:18:08;;;;;;;3.10;2.03;;;;;;;;;;5057795;28;20025;-47
2021/03/06 15:20:34;;;;;;;5.95;3.42;;;;;;;;;;5058469;28;20033;-51
2021/03/06 15:23:00;;;;;;;5.53;3.47;;;;;;;;;;5058086;28;20392;-46
2021/03/06 15:25:26;;;;;;;4.03;2.15;;;;;;;;;;5058751;28;20028;-46
2021/03/06 15:27:52;;;;;;;1.02;0.85;;;;;;;;;;5054773;28;20019;-46
2021/03/06 15:30:19;;;;;;;2.35;2.15;;;;;;;;;;5057352;28;20040;-45
2021/03/06 15:32:45;;;;;;;4.07;1.73;;;;;;;;;;5058598;28;20474;-47
2021/03/06 15:35:11;;;;;;;2.10;1.60;;;;;;;;;;5058228;28;20540;-47
2021/03/06 15:37:38;;;;;;;6.90;2.55;;;;;;;;;;5058732;28;20497;-46
2021/03/06 15:40:07;;;;;;;4.40;2.63;;;;;;;;;;5055282;28;20402;-51
2021/03/06 15:42:34;;;;;;;4.22;2.10;;;;;;;;;;5055918;28;20416;-47
2021/03/06 15:45:00;;;;;;;3.20;1.73;;;;;;;;;;5067470;28;20054;-50
2021/03/06 15:47:26;;;;;;;2.63;1.88;;;;;;;;;;5061415;28;20028;-47
2021/03/06 15:49:52;;;;;;;2.90;0.82;;;;;;;;;;5060419;28;20552;-48
2021/03/06 15:52:19;;;;;;;5.03;3.05;;;;;;;;;;5069544;28;20025;-46
2021/03/06 15:54:45;;;;;;;0.82;0.82;;;;;;;;;;5070869;28;20509;-47
2021/03/06 15:57:11;;;;;;;6.60;4.82;;;;;;;;;;5072955;28;20115;-46
2021/03/06 15:59:37;;;;;;;7.10;4.22;;;;;;;;;;5078812;28;20048;-47
2021/03/06 16:02:04;;;;;;;7.25;3.50;;;;;;;;;;5067050;28;20017;-49
2021/03/06 16:04:30;;;;;;;5.85;3.13;;;;;;;;;;5058099;28;20103;-50
2021/03/06 16:06:56;;;;;;;8.20;3.80;;;;;;;;;;5053242;28;20021;-46
2021/03/06 16:09:22;;;;;;;5.88;2.15;;;;;;;;;;5058194;28;20047;-49
2021/03/06 16:11:48;;;;;;;3.90;2.25;;;;;;;;;;5061058;28;20017;-50
2021/03/06 16:14:14;;;;;;;1.58;1.48;;;;;;;;;;5059147;28;20025;-48
2021/03/06 16:16:40;;;;;;;5.07;3.35;;;;;;;;;;5058546;28;20190;-49
2021/03/06 16:19:06;;;;;;;4.30;3.30;;;;;;;;;;5057436;28;20017;-46
2021/03/06 16:21:32;;;;;;;3.47;2.95;;;;;;;;;;5057702;28;20517;-50
2021/03/06 16:23:58;;;;;;;16.50;4.18;;;;;;;;;;5060236;28;20122;-49
2021/03/06 16:26:25;;;;;;;3.65;2.80;;;;;;;;;;5059021;28;20040;-51
2021/03/06 16:28:52;;;;;;;4.47;2.40;;;;;;;;;;5062749;28;20044;-49
2021/03/06 16:31:18;;;;;;;6.10;3.80;;;;;;;;;;5061291;28;20037;-46
2021/03/06 16:33:44;;;;;;;7.80;3.40;;;;;;;;;;5067366;28;20472;-51
2021/03/06 16:36:10;;;;;;;4.55;1.77;;;;;;;;;;5054918;28;20024;-49
2021/03/06 16:38:36;;;;;;;2.38;2.22;;;;;;;;;;5056015;28;20033;-52
2021/03/06 16:41:03;;;;;;;3.35;1.38;;;;;;;;;;5058690;28;20047;-50
2021/03/06 16:43:29;;;;;;;7.30;3.63;;;;;;;;;;5058849;28;20434;-48
2021/03/06 16:45:56;;;;;;;6.05;2.95;;;;;;;;;;5061011;28;20025;-45
2021/03/06 16:48:22;;;;;;;7.10;4.75;;;;;;;;;;5060185;28;20029;-50
2021/03/06 16:50:49;;;;;;;7.30;4.82;;;;;;;;;;5059738;28;20517;-47
2021/03/06 16:53:15;;;;;;;4.20;1.15;;;;;;;;;;5055350;28;20028;-46
2021/03/06 16:55:43;;;;;;;3.22;2.80;;;;;;;;;;5053067;28;20033;-50
2021/03/06 16:58:09;;;;;;;2.45;1.83;;;;;;;;;;5060055;28;20518;-47
2021/03/06 17:00:36;;;;;;;1.63;1.20;;;;;;;;;;5058342;28;20056;-46
2021/03/06 17:03:04;;;;;;;1.77;1.27;;;;;;;;;;5065796;28;20032;-55
2021/03/06 17:05:30;;;;;;;5.78;1.90;;;;;;;;;;5070883;28;20116;-52
2021/03/06 17:07:56;;;;;;;6.43;3.97;;;;;;;;;;5069310;28;20025;-46
2021/03/06 17:10:22;;;;;;;0.52;0.52;;;;;;;;;;5061918;28;20037;-50
2021/03/06 17:12:49;;;;;;;2.58;2.25;;;;;;;;;;5068473;28;20020;-49
2021/03/06 17:15:15;;;;;;;10.43;2.47;;;;;;;;;;5070701;28;20115;-47
2021/03/06 17:17:42;;;;;;;5.28;2.45;;;;;;;;;;5069606;28;20024;-48
2021/03/06 17:20:08;;;;;;;5.90;3.40;;;;;;;;;;5068359;28;20107;-48
2021/03/06 17:22:34;;;;;;;0.10;0.10;;;;;;;;;;5066297;28;20406;-48
2021/03/06 17:25:00;;;;;;;3.60;2.28;;;;;;;;;;5066878;28;20032;-50
2021/03/06 17:27:27;;;;;;;9.35;0.98;;;;;;;;;;5068274;28;20031;-51
2021/03/06 17:29:53;;;;;;;1.50;1.33;;;;;;;;;;5068958;28;20044;-48
2021/03/06 17:32:19;;;;;;;2.80;1.90;;;;;;;;;;5068981;28;20024;-47
2021/03/06 17:34:45;;;;;;;5.47;3.65;;;;;;;;;;5067868;28;20024;-47
2021/03/06 17:37:12;;;;;;;3.80;2.83;;;;;;;;;;5068078;28;20013;-48
2021/03/06 17:39:38;;;;;;;5.65;2.60;;;;;;;;;;5069284;28;20028;-48
2021/03/06 17:42:05;;;;;;;11.45;5.45;;;;;;;;;;5067344;28;20020;-50
2021/03/06 17:44:31;;;;;;;2.22;1.70;;;;;;;;;;5068443;28;20021;-49
2021/03/06 17:46:57;;;;;;;3.17;2.90;;;;;;;;;;5067196;28;20025;-47
2021/03/06 17:49:23;;;;;;;1.33;1.27;;;;;;;;;;5067667;28;20119;-48
2021/03/06 17:51:50;;;;;;;6.00;2.97;;;;;;;;;;5067958;28;20055;-46
2021/03/06 17:54:16;;;;;;;2.30;1.42;;;;;;;;;;5070270;28;20040;-49
2021/03/06 17:56:43;;;;;;;2.20;2.05;;;;;;;;;;5068119;28;20020;-46
2021/03/06 17:59:10;;;;;;;7.97;4.80;;;;;;;;;;5068280;28;20055;-47
2021/03/06 18:01:36;;;;;;;8.38;3.17;;;;;;;;;;5068552;28;20110;-46
2021/03/06 18:04:03;;;;;;;2.92;2.28;;;;;;;;;;5068839;28;20020;-47
2021/03/06 18:06:29;;;;;;;0.57;0.50;;;;;;;;;;5069198;28;20091;-49
2021/03/06 18:08:55;;;;;;;5.85;2.35;;;;;;;;;;5068524;28;20039;-49
2021/03/06 18:11:21;;;;;;;1.50;1.40;;;;;;;;;;5068120;28;20099;-49
2021/03/06 18:13:48;;;;;;;0.70;0.70;;;;;;;;;;5068137;28;20831;-46
2021/03/06 18:16:14;;;;;;;0.55;0.55;;;;;;;;;;5068004;28;20024;-49
2021/03/06 18:18:41;;;;;;;1.58;1.48;;;;;;;;;;5067891;28;20094;-49
2021/03/06 18:21:07;;;;;;;0.30;0.30;;;;;;;;;;5069855;28;20029;-47
2021/03/06 18:23:33;;;;;;;2.90;1.83;;;;;;;;;;5066598;28;20082;-47
2021/03/06 18:26:00;;;;;;;5.18;3.45;;;;;;;;;;5067924;28;20044;-46
2021/03/06 18:28:26;;;;;;;4.50;1.88;;;;;;;;;;5068068;28;20051;-47
2021/03/06 18:30:55;;;;;;;2.22;1.85;;;;;;;;;;5065357;28;20107;-47
2021/03/06 18:33:21;;;;;;;0.80;0.80;;;;;;;;;;5070028;28;20097;-51
2021/03/06 18:35:48;;;;;;;2.00;1.77;;;;;;;;;;5066382;28;20025;-50
2021/03/06 18:38:14;;;;;;;2.88;2.25;;;;;;;;;;5066733;28;20074;-48
2021/03/06 18:40:42;;;;;;;2.13;1.60;;;;;;;;;;5065991;28;20028;-50
2021/03/06 18:43:09;;;;;;;1.20;1.15;;;;;;;;;;5067320;28;20025;-51
2021/03/06 18:45:35;;;;;;;0.30;0.30;;;;;;;;;;5069120;28;20025;-48
2021/03/06 18:48:01;;;;;;;0.68;0.68;;;;;;;;;;5067922;28;20391;-48
2021/03/06 18:50:27;;;;;;;0.95;0.95;;;;;;;;;;5066947;28;20458;-47
2021/03/06 18:52:53;;;;;;;2.97;1.73;;;;;;;;;;5065578;28;20110;-49
2021/03/06 18:55:20;;;;;;;4.55;2.55;;;;;;;;;;5066796;28;20402;-46
2021/03/06 18:57:46;;;;;;;1.65;1.55;;;;;;;;;;5070284;28;20041;-53
2021/03/06 19:00:14;;;;;;;0.50;0.50;;;;;;;;;;5073698;28;20049;-50
2021/03/06 19:02:40;;;;;;;0.65;0.65;;;;;;;;;;5067992;28;20086;-48
2021/03/06 19:05:07;;;;;;;3.38;2.55;;;;;;;;;;5069997;28;20576;-51
2021/03/06 19:07:34;;;;;;;0.45;0.45;;;;;;;;;;5066737;28;20043;-51
2021/03/06 19:10:00;;;;;;;0.32;0.32;;;;;;;;;;5069893;28;20056;-47
2021/03/06 19:12:26;;;;;;;1.95;1.60;;;;;;;;;;5072478;28;20448;-50
2021/03/06 19:14:53;;;;;;;7.72;2.38;;;;;;;;;;5070661;28;20029;-48
2021/03/06 19:17:19;;;;;;;0.30;0.30;;;;;;;;;;5070241;28;20016;-48
2021/03/06 19:19:45;;;;;;;0.30;0.30;;;;;;;;;;5070027;28;20436;-47
2021/03/06 19:22:12;;;;;;;4.45;2.42;;;;;;;;;;5072638;28;20127;-50
2021/03/06 19:24:38;;;;;;;0.93;0.93;;;;;;;;;;5072149;28;20100;-47
2021/03/06 19:27:04;;;;;;;0.20;0.20;;;;;;;;;;5071044;28;20116;-51
2021/03/06 19:29:30;;;;;;;1.50;1.27;;;;;;;;;;5063129;28;20498;-54
2021/03/06 19:31:56;;;;;;;2.13;2.03;;;;;;;;;;5069526;28;20032;-49
2021/03/06 19:34:23;;;;;;;0.30;0.30;;;;;;;;;;5059153;28;20033;-47
2021/03/06 19:36:49;;;;;;;0.55;0.55;;;;;;;;;;5074680;28;20016;-51
2021/03/06 19:39:15;;;;;;;4.00;3.70;;;;;;;;;;5083417;28;20053;-48
2021/03/06 19:41:43;;;;;;;0.28;0.28;;;;;;;;;;5069923;28;20024;-47
2021/03/06 19:44:09;;;;;;;0.20;0.20;;;;;;;;;;5066211;28;20024;-48
2021/03/06 19:46:35;;;;;;;0.57;0.57;;;;;;;;;;5065521;28;20016;-49
2021/03/06 19:49:02;;;;;;;0.30;0.30;;;;;;;;;;5068475;28;20186;-54
2021/03/06 19:51:29;;;;;;;0.40;0.40;;;;;;;;;;5064778;28;20035;-59
2021/03/06 19:53:55;;;;;;;0.38;0.38;;;;;;;;;;5055042;28;20025;-50
2021/03/06 19:56:21;;;;;;;1.80;1.70;;;;;;;;;;5053837;28;20037;-52
2021/03/06 19:58:47;;;;;;;0.30;0.30;;;;;;;;;;5052664;28;20685;-52
2021/03/06 20:01:14;;;;;;;0.40;0.40;;;;;;;;;;5051598;28;20033;-54
2021/03/06 20:03:40;;;;;;;7.95;4.68;;;;;;;;;;5052288;28;20028;-52
2021/03/06 20:06:06;;;;;;;2.25;2.15;;;;;;;;;;5052396;28;20044;-52
2021/03/06 20:08:33;;;;;;;7.00;6.35;;;;;;;;;;5053324;28;20040;-51
2021/03/06 20:10:59;;;;;;;1.15;1.15;;;;;;;;;;5052857;28;20502;-55
2021/03/06 20:13:25;;;;;;;3.90;2.13;;;;;;;;;;5051267;28;20158;-53
2021/03/06 20:15:52;;;;;;;2.75;1.40;;;;;;;;;;5049955;28;20047;-51
2021/03/06 20:18:18;;;;;;;1.30;1.25;;;;;;;;;;5048941;28;20024;-47
2021/03/06 20:20:44;;;;;;;4.50;3.85;;;;;;;;;;5053084;28;20068;-51
2021/03/06 20:23:10;;;;;;;0.73;0.73;;;;;;;;;;5053092;28;20099;-54
2021/03/06 20:25:37;;;;;;;0.70;0.70;;;;;;;;;;5054215;28;20021;-50
2021/03/06 20:28:04;;;;;;;1.23;1.20;;;;;;;;;;5057644;28;20122;-50
2021/03/06 20:30:30;;;;;;;7.30;4.45;;;;;;;;;;5064680;28;20040;-51
2021/03/06 20:32:56;;;;;;;0.60;0.60;;;;;;;;;;5063276;28;20644;-52
2021/03/06 20:35:22;;;;;;;3.53;1.10;;;;;;;;;;5062017;28;20036;-53
2021/03/06 20:37:49;;;;;;;2.55;1.77;;;;;;;;;;5057212;28;20051;-53
2021/03/06 20:40:15;;;;;;;3.20;2.92;;;;;;;;;;5054241;28;20033;-49